createdAt,value
2018-06-09T00:01:28.774Z,8.97
2018-06-09T00:03:57.034Z,10.33
2018-06-09T00:06:25.297Z,9.57
2018-06-09T00:08:53.582Z,8.17
2018-06-09T00:11:21.840Z,13.73
2018-06-09T00:13:50.105Z,11.47
2018-06-09T00:16:18.359Z,7.47
2018-06-09T00:18:46.656Z,8.97
2018-06-09T00:21:14.935Z,12.70
2018-06-09T00:23:43.267Z,10.33
2018-06-09T00:26:11.608Z,7.43
2018-06-09T00:28:39.877Z,9.77
2018-06-09T00:31:09.144Z,9.47
2018-06-09T00:33:37.432Z,13.37
2018-06-09T00:36:05.714Z,7.43
2018-06-09T00:38:34.021Z,8.43
2018-06-09T00:41:02.284Z,9.03
2018-06-09T00:43:30.558Z,12.10
2018-06-09T00:45:58.834Z,10.57
2018-06-09T00:48:27.071Z,7.40
2018-06-09T00:50:56.367Z,8.13
2018-06-09T00:53:24.615Z,9.50
2018-06-09T00:55:57.344Z,8.63
2018-06-09T00:58:25.583Z,8.10
2018-06-09T01:00:53.844Z,9.67
2018-06-09T01:03:22.143Z,10.47
2018-06-09T01:05:50.423Z,10.80
2018-06-09T01:11:01.879Z,11.97
2018-06-09T01:13:30.136Z,9.67
2018-06-09T01:15:58.496Z,13.50
2018-06-09T01:18:26.830Z,9.93
2018-06-09T01:20:55.105Z,13.30
2018-06-09T01:23:23.368Z,9.60
2018-06-09T01:25:51.651Z,13.23
2018-06-09T01:28:20.005Z,9.80
2018-06-09T01:30:48.274Z,9.97
2018-06-09T01:33:16.579Z,13.63
2018-06-09T01:35:44.866Z,10.87
2018-06-09T01:38:13.130Z,9.97
2018-06-09T01:40:41.453Z,10.67
2018-06-09T01:43:09.734Z,10.77
2018-06-09T01:45:37.999Z,9.03
2018-06-09T01:48:06.311Z,10.23
2018-06-09T01:50:34.564Z,10.30
2018-06-09T01:53:02.842Z,9.43
2018-06-09T01:55:31.066Z,12.17
2018-06-09T01:57:59.372Z,10.60
2018-06-09T02:00:27.688Z,12.53
2018-06-09T02:02:55.929Z,10.87
2018-06-09T02:05:24.196Z,10.67
2018-06-09T02:07:52.510Z,10.40
2018-06-09T02:10:20.767Z,10.83
2018-06-09T02:12:49.028Z,11.77
2018-06-09T02:15:17.662Z,9.90
2018-06-09T02:17:45.890Z,11.13
2018-06-09T02:20:14.168Z,11.17
2018-06-09T02:22:42.444Z,13.33
2018-06-09T02:25:10.738Z,10.57
2018-06-09T02:27:39.035Z,12.17
2018-06-09T02:30:07.264Z,14.03
2018-06-09T02:32:35.544Z,10.60
2018-06-09T02:35:03.819Z,12.10
2018-06-09T02:37:32.106Z,12.80
2018-06-09T02:40:00.419Z,12.57
2018-06-09T02:42:28.691Z,12.83
2018-06-09T02:44:56.939Z,11.30
2018-06-09T02:47:25.198Z,14.63
2018-06-09T02:49:53.454Z,12.33
2018-06-09T02:52:21.794Z,15.57
2018-06-09T02:54:52.284Z,10.53
2018-06-09T02:57:20.674Z,11.70
2018-06-09T02:59:48.943Z,11.47
2018-06-09T03:02:17.199Z,11.50
2018-06-09T03:04:45.518Z,15.07
2018-06-09T03:07:13.792Z,18.47
2018-06-09T03:09:42.065Z,14.20
2018-06-09T03:12:10.361Z,13.87
2018-06-09T03:14:38.585Z,10.73
2018-06-09T03:17:06.931Z,10.23
2018-06-09T03:19:35.182Z,11.57
2018-06-09T03:22:03.470Z,13.33
2018-06-09T03:24:31.755Z,12.53
2018-06-09T03:27:00.002Z,12.37
2018-06-09T03:29:28.251Z,10.83
2018-06-09T03:31:56.527Z,12.00
2018-06-09T03:34:24.804Z,13.20
2018-06-09T03:36:53.123Z,10.77
2018-06-09T03:39:21.392Z,9.53
2018-06-09T03:41:49.625Z,9.37
2018-06-09T03:44:17.908Z,12.53
2018-06-09T03:46:46.223Z,12.13
2018-06-09T03:49:14.483Z,15.43
2018-06-09T03:51:42.756Z,10.57
2018-06-09T03:54:11.083Z,11.60
2018-06-09T03:56:39.399Z,11.33
2018-06-09T03:59:07.686Z,11.90
2018-06-09T04:01:36.011Z,12.10
2018-06-09T04:04:04.295Z,9.10
2018-06-09T04:06:32.657Z,17.90
2018-06-09T04:09:07.919Z,11.83
2018-06-09T04:11:36.402Z,11.90
2018-06-09T04:14:04.783Z,10.43
2018-06-09T04:16:37.339Z,9.97
2018-06-09T04:19:05.693Z,12.30
2018-06-09T04:21:38.235Z,7.83
2018-06-09T04:24:07.106Z,11.43
2018-06-09T04:26:35.362Z,8.80
2018-06-09T04:29:03.702Z,8.60
2018-06-09T04:31:32.073Z,11.40
2018-06-09T04:34:00.509Z,11.93
2018-06-09T04:36:28.746Z,11.60
2018-06-09T04:38:59.818Z,8.83
2018-06-09T04:41:28.919Z,8.67
2018-06-09T04:43:57.195Z,10.53
2018-06-09T04:46:25.480Z,13.73
2018-06-09T04:48:53.764Z,9.93
2018-06-09T04:51:23.530Z,9.83
2018-06-09T04:53:51.837Z,7.90
2018-06-09T04:56:20.180Z,13.53
2018-06-09T04:58:48.454Z,9.70
2018-06-09T05:01:16.738Z,11.67
2018-06-09T05:03:44.989Z,11.37
2018-06-09T05:06:13.237Z,12.27
2018-06-09T05:08:41.503Z,12.47
2018-06-09T05:11:09.770Z,11.00
2018-06-09T05:13:38.042Z,9.03
2018-06-09T05:16:06.335Z,10.93
2018-06-09T05:18:35.560Z,10.23
2018-06-09T05:21:03.859Z,9.33
2018-06-09T05:23:32.137Z,10.37
2018-06-09T05:26:00.375Z,12.87
2018-06-09T05:28:28.704Z,8.67
2018-06-09T05:30:56.934Z,8.57
2018-06-09T05:33:25.255Z,9.03
2018-06-09T05:35:53.516Z,13.80
2018-06-09T05:38:21.739Z,9.40
2018-06-09T05:40:49.977Z,7.50
2018-06-09T05:43:18.243Z,10.83
2018-06-09T05:45:46.520Z,8.40
2018-06-09T05:48:14.759Z,11.37
2018-06-09T05:50:43.005Z,9.60
2018-06-09T05:53:11.242Z,12.43
2018-06-09T05:55:39.497Z,12.20
2018-06-09T05:58:07.755Z,11.53
2018-06-09T06:00:35.939Z,9.53
2018-06-09T06:03:04.145Z,13.17
2018-06-09T06:05:32.383Z,10.23
2018-06-09T06:08:00.769Z,10.67
2018-06-09T06:10:29.452Z,12.67
2018-06-09T06:12:57.625Z,9.57
2018-06-09T06:15:25.824Z,13.20
2018-06-09T06:17:53.992Z,12.13
2018-06-09T06:20:22.203Z,11.53
2018-06-09T06:22:50.520Z,10.37
2018-06-09T06:25:19.075Z,10.57
2018-06-09T06:27:47.248Z,10.93
2018-06-09T06:30:15.421Z,11.00
2018-06-09T06:32:43.632Z,10.57
2018-06-09T06:35:11.805Z,14.07
2018-06-09T06:37:40.025Z,16.77
2018-06-09T06:40:08.195Z,8.53
2018-06-09T06:42:36.396Z,12.63
2018-06-09T06:45:04.623Z,8.33
2018-06-09T06:47:32.801Z,10.57
2018-06-09T06:50:01.017Z,11.57
2018-06-09T06:52:29.234Z,9.97
2018-06-09T06:54:57.411Z,13.73
2018-06-09T06:57:25.629Z,10.67
2018-06-09T06:59:53.797Z,13.63
2018-06-09T07:02:22.671Z,13.73
2018-06-09T07:04:50.852Z,14.10
2018-06-09T07:07:19.262Z,12.33
2018-06-09T07:09:47.434Z,11.87
2018-06-09T07:12:15.798Z,14.63
2018-06-09T07:14:43.977Z,12.50
2018-06-09T07:17:12.192Z,12.27
2018-06-09T07:19:40.412Z,10.90
2018-06-09T07:22:08.641Z,11.07
2018-06-09T07:24:36.934Z,13.23
2018-06-09T07:27:05.134Z,12.23
2018-06-09T07:29:33.432Z,10.10
2018-06-09T07:32:02.128Z,11.53
2018-06-09T07:34:30.321Z,11.07
2018-06-09T07:36:58.487Z,10.23
2018-06-09T07:39:26.689Z,12.47
2018-06-09T07:41:54.994Z,10.07
2018-06-09T07:44:23.182Z,11.70
2018-06-09T07:46:51.479Z,13.33
2018-06-09T07:49:19.744Z,10.47
2018-06-09T07:51:47.948Z,10.87
2018-06-09T07:54:16.132Z,10.43
2018-06-09T07:56:45.007Z,14.13
2018-06-09T07:59:13.255Z,12.67
2018-06-09T08:02:07.889Z,14.33
2018-06-09T08:04:36.176Z,9.93
2018-06-09T08:07:04.565Z,11.87
2018-06-09T08:09:32.881Z,10.27
2018-06-09T08:12:01.093Z,12.07
2018-06-09T08:14:29.672Z,10.70
2018-06-09T08:16:57.972Z,11.60
2018-06-09T08:19:26.483Z,13.07
2018-06-09T08:21:54.694Z,9.80
2018-06-09T08:24:22.950Z,9.33
2018-06-09T08:26:51.239Z,9.77
2018-06-09T08:29:19.406Z,7.97
2018-06-09T08:31:47.610Z,13.50
2018-06-09T08:34:15.817Z,9.73
2018-06-09T08:36:44.010Z,11.73
2018-06-09T08:39:12.194Z,9.30
2018-06-09T08:41:40.393Z,11.27
2018-06-09T08:44:08.569Z,9.90
2018-06-09T08:46:36.766Z,11.77
2018-06-09T08:49:05.018Z,10.70
2018-06-09T08:51:33.248Z,8.97
2018-06-09T08:54:02.087Z,9.47
2018-06-09T08:56:30.329Z,11.40
2018-06-09T08:58:58.587Z,10.60
2018-06-09T09:01:27.021Z,11.00
2018-06-09T09:03:55.289Z,9.70
2018-06-09T09:06:23.557Z,10.77
2018-06-09T09:08:51.774Z,8.57
2018-06-09T09:11:20.337Z,10.47
2018-06-09T09:13:48.567Z,8.40
2018-06-09T09:16:16.769Z,8.30
2018-06-09T09:18:45.036Z,10.33
2018-06-09T09:21:13.228Z,9.30
2018-06-09T09:23:41.455Z,8.57
2018-06-09T09:26:09.684Z,8.13
2018-06-09T09:28:38.205Z,7.63
2018-06-09T09:31:06.419Z,9.13
2018-06-09T09:33:34.634Z,9.03
2018-06-09T09:36:02.854Z,10.67
2018-06-09T09:38:31.079Z,9.23
2018-06-09T09:40:59.284Z,9.53
2018-06-09T09:43:27.585Z,8.73
2018-06-09T09:45:55.835Z,7.23
2018-06-09T09:48:24.039Z,7.25
2018-06-09T09:50:52.271Z,11.55
2018-06-09T09:53:20.494Z,9.68
2018-06-09T09:55:48.702Z,8.78
2018-06-09T09:58:16.923Z,8.00
2018-06-09T10:00:45.171Z,7.40
2018-06-09T10:03:13.448Z,6.72
2018-06-09T10:05:41.667Z,8.35
2018-06-09T10:08:09.985Z,10.18
2018-06-09T10:10:38.234Z,7.17
2018-06-09T10:13:06.495Z,7.45
2018-06-09T10:15:34.743Z,6.35
2018-06-09T10:18:03.001Z,8.65
2018-06-09T10:20:31.266Z,6.37
2018-06-09T10:22:59.519Z,7.12
2018-06-09T10:25:28.289Z,10.53
2018-06-09T10:27:56.485Z,9.53
2018-06-09T10:30:24.695Z,7.72
2018-06-09T10:32:53.172Z,6.50
2018-06-09T10:35:21.337Z,6.03
2018-06-09T10:37:49.541Z,10.48
2018-06-09T10:40:17.720Z,5.80
2018-06-09T10:42:46.038Z,7.70
2018-06-09T10:45:14.307Z,6.12
2018-06-09T10:47:42.639Z,7.55
2018-06-09T10:50:10.952Z,9.30
2018-06-09T10:52:39.230Z,8.18
2018-06-09T10:55:07.547Z,7.58
2018-06-09T10:57:35.853Z,8.23
2018-06-09T11:00:04.384Z,10.45
2018-06-09T11:02:32.598Z,10.38
2018-06-09T11:05:00.823Z,7.55
2018-06-09T11:07:29.059Z,7.97
2018-06-09T11:09:57.337Z,6.47
2018-06-09T11:12:25.535Z,7.40
2018-06-09T11:14:53.730Z,5.35
2018-06-09T11:17:21.919Z,4.92
2018-06-09T11:19:50.135Z,5.00
2018-06-09T11:22:18.352Z,5.58
2018-06-09T11:24:46.570Z,4.72
2018-06-09T11:27:14.796Z,4.17
2018-06-09T11:29:43.066Z,4.30
2018-06-09T11:32:11.287Z,5.35
2018-06-09T11:34:39.554Z,4.15
2018-06-09T11:37:07.785Z,5.28
2018-06-09T11:39:35.986Z,4.75
2018-06-09T11:42:04.606Z,5.97
2018-06-09T11:44:32.827Z,8.93
2018-06-09T11:47:01.034Z,5.17
2018-06-09T11:49:29.261Z,5.53
2018-06-09T11:51:57.482Z,6.28
2018-06-09T11:54:25.682Z,7.15
2018-06-09T11:56:53.887Z,5.35
2018-06-09T11:59:22.118Z,7.67
2018-06-09T12:01:50.456Z,6.47
2018-06-09T12:04:18.662Z,6.62
2018-06-09T12:06:46.880Z,6.10
2018-06-09T12:09:15.095Z,7.53
2018-06-09T12:11:43.317Z,6.17
2018-06-09T12:14:11.511Z,6.67
2018-06-09T12:16:39.714Z,7.70
2018-06-09T12:19:07.936Z,6.70
2018-06-09T12:21:36.130Z,5.75
2018-06-09T12:24:04.332Z,6.95
2018-06-09T12:26:32.547Z,7.03
2018-06-09T12:29:00.791Z,6.87
2018-06-09T12:31:29.053Z,6.75
2018-06-09T12:33:57.293Z,9.78
2018-06-09T12:36:25.511Z,6.90
2018-06-09T12:38:53.727Z,6.55
2018-06-09T12:41:21.970Z,7.12
2018-06-09T12:43:50.178Z,9.25
2018-06-09T12:46:18.418Z,7.37
2018-06-09T12:48:46.703Z,10.30
2018-06-09T12:51:14.923Z,7.53
2018-06-09T12:53:43.131Z,7.67
2018-06-09T12:56:11.332Z,7.70
2018-06-09T12:58:39.598Z,9.15
2018-06-09T13:01:07.992Z,6.90
2018-06-09T13:03:36.246Z,6.85
2018-06-09T13:06:04.471Z,7.00
2018-06-09T13:08:32.721Z,7.22
2018-06-09T13:11:00.967Z,8.15
2018-06-09T13:13:29.183Z,8.58
2018-06-09T13:15:57.395Z,7.30
2018-06-09T13:18:25.608Z,7.45
2018-06-09T13:20:53.858Z,8.13
2018-06-09T13:23:22.082Z,7.12
2018-06-09T13:25:50.306Z,7.67
2018-06-09T13:28:18.522Z,7.63
2018-06-09T13:30:46.762Z,6.80
2018-06-09T13:33:15.035Z,9.43
2018-06-09T13:35:43.255Z,8.17
2018-06-09T13:38:11.564Z,9.48
2018-06-09T13:40:39.837Z,10.47
2018-06-09T13:43:08.079Z,9.08
2018-06-09T13:45:36.345Z,8.90
2018-06-09T13:48:04.565Z,10.13
2018-06-09T13:50:32.803Z,9.75
2018-06-09T13:53:01.081Z,12.00
2018-06-09T13:55:29.290Z,14.20
2018-06-09T13:57:57.563Z,8.87
2018-06-09T14:00:25.803Z,9.30
2018-06-09T14:02:54.079Z,8.38
2018-06-09T14:05:22.302Z,7.90
2018-06-09T14:07:50.535Z,7.08
2018-06-09T14:10:18.770Z,10.30
2018-06-09T14:12:47.006Z,7.05
2018-06-09T14:15:15.206Z,7.40
2018-06-09T14:17:43.516Z,6.45
2018-06-09T14:20:11.726Z,7.42
2018-06-09T14:22:39.914Z,30.43
2018-06-09T14:25:08.110Z,17.43
2018-06-09T14:27:36.316Z,13.33
2018-06-09T14:30:04.538Z,10.17
2018-06-09T14:32:32.730Z,11.17
2018-06-09T14:35:00.940Z,14.63
2018-06-09T14:37:29.123Z,10.03
2018-06-09T14:39:57.324Z,9.60
2018-06-09T14:42:25.530Z,9.00
2018-06-09T14:44:53.728Z,9.07
2018-06-09T14:47:21.923Z,13.53
2018-06-09T14:49:50.145Z,9.47
2018-06-09T14:52:18.338Z,11.93
2018-06-09T14:54:46.565Z,13.63
2018-06-09T14:57:14.815Z,10.37
2018-06-09T14:59:43.025Z,10.07
2018-06-09T15:02:11.291Z,10.70
2018-06-09T15:04:39.519Z,9.90
2018-06-09T15:07:07.752Z,8.53
2018-06-09T15:09:35.966Z,13.23
2018-06-09T15:12:04.193Z,15.03
2018-06-09T15:14:32.431Z,21.00
2018-06-09T15:17:00.627Z,9.93
2018-06-09T15:19:28.887Z,18.90
2018-06-09T15:21:57.122Z,11.00
2018-06-09T15:24:25.298Z,8.83
2018-06-09T15:26:53.485Z,13.20
2018-06-09T15:29:21.674Z,14.30
2018-06-09T15:31:49.910Z,13.47
2018-06-09T15:34:18.098Z,12.60
2018-06-09T15:36:46.291Z,9.07
2018-06-09T15:39:14.471Z,7.93
2018-06-09T15:41:42.677Z,14.27
2018-06-09T15:44:10.886Z,7.63
2018-06-09T15:46:39.150Z,6.77
2018-06-09T15:49:07.428Z,7.53
2018-06-09T15:51:35.613Z,7.10
2018-06-09T15:54:03.939Z,6.83
2018-06-09T15:56:32.207Z,9.20
2018-06-09T15:59:00.402Z,6.40
2018-06-09T16:01:28.589Z,6.57
2018-06-09T16:03:56.777Z,7.17
2018-06-09T16:06:24.950Z,6.33
2018-06-09T16:08:53.220Z,5.70
2018-06-09T16:11:21.418Z,8.23
2018-06-09T16:13:50.232Z,11.40
2018-06-09T16:16:18.406Z,5.83
2018-06-09T16:18:47.207Z,6.93
2018-06-09T16:21:15.482Z,7.30
2018-06-09T16:23:43.650Z,11.47
2018-06-09T16:26:11.850Z,10.47
2018-06-09T16:28:40.035Z,8.60
2018-06-09T16:31:08.246Z,10.00
2018-06-09T16:33:36.452Z,16.07
2018-06-09T16:36:04.653Z,10.17
2018-06-09T16:38:33.027Z,7.20
2018-06-09T16:41:01.218Z,7.67
2018-06-09T16:43:29.431Z,8.97
2018-06-09T16:45:57.638Z,9.10
2018-06-09T16:48:25.838Z,11.40
2018-06-09T16:50:54.079Z,8.03
2018-06-09T16:53:22.282Z,10.63
2018-06-09T16:55:50.524Z,8.53
2018-06-09T16:58:18.764Z,8.00
2018-06-09T17:00:47.091Z,8.40
2018-06-09T17:03:15.278Z,7.60
2018-06-09T17:05:43.467Z,8.87
2018-06-09T17:08:11.660Z,8.80
2018-06-09T17:10:39.837Z,9.97
2018-06-09T17:13:08.021Z,10.63
2018-06-09T17:15:36.326Z,8.13
2018-06-09T17:18:04.706Z,10.13
2018-06-09T17:20:33.210Z,10.53
2018-06-09T17:23:01.451Z,10.70
2018-06-09T17:25:29.681Z,14.83
2018-06-09T17:27:57.893Z,13.37
2018-06-09T17:30:26.152Z,9.73
2018-06-09T17:32:54.408Z,11.53
2018-06-09T17:35:22.647Z,12.03
2018-06-09T17:37:50.872Z,12.17
2018-06-09T17:40:19.074Z,9.33
2018-06-09T17:42:47.276Z,12.90
2018-06-09T17:45:15.494Z,9.57
2018-06-09T17:47:43.689Z,10.70
2018-06-09T17:50:12.055Z,13.20
2018-06-09T17:52:40.271Z,11.73
2018-06-09T17:55:08.501Z,8.53
2018-06-09T17:57:36.708Z,15.43
2018-06-09T18:00:05.007Z,13.37
2018-06-09T18:02:33.346Z,15.83
2018-06-09T18:05:01.563Z,16.83
2018-06-09T18:07:29.820Z,15.17
2018-06-09T18:09:58.059Z,17.07
2018-06-09T18:12:26.350Z,16.80
2018-06-09T18:14:54.565Z,17.13
2018-06-09T18:17:22.776Z,14.90
2018-06-09T18:19:51.094Z,16.77
2018-06-09T18:22:19.294Z,15.80
2018-06-09T18:24:47.517Z,13.50
2018-06-09T18:27:15.702Z,13.53
2018-06-09T18:29:43.912Z,14.53
2018-06-09T18:32:12.136Z,14.63
2018-06-09T18:34:40.400Z,13.93
2018-06-09T18:37:08.696Z,12.03
2018-06-09T18:39:36.996Z,13.80
2018-06-09T18:42:05.259Z,12.70
2018-06-09T18:44:33.573Z,12.27
2018-06-09T18:47:02.871Z,12.43
2018-06-09T18:49:31.089Z,15.20
2018-06-09T18:51:59.282Z,11.57
2018-06-09T18:54:27.600Z,12.50
2018-06-09T18:56:55.839Z,12.90
2018-06-09T18:59:24.139Z,14.80
2018-06-09T19:01:52.340Z,14.83
2018-06-09T19:04:20.555Z,13.17
2018-06-09T19:06:48.782Z,13.90
2018-06-09T19:09:16.994Z,15.30
2018-06-09T19:11:45.783Z,13.43
2018-06-09T19:14:13.987Z,14.47
2018-06-09T19:16:42.269Z,14.13
2018-06-09T19:19:10.501Z,14.27
2018-06-09T19:21:38.715Z,14.60
2018-06-09T19:26:41.551Z,18.37
2018-06-09T19:29:09.769Z,15.40
2018-06-09T19:31:38.044Z,16.57
2018-06-09T19:34:06.314Z,19.37
2018-06-09T19:36:34.556Z,14.60
2018-06-09T19:39:02.846Z,15.83
2018-06-09T19:41:31.118Z,15.03
2018-06-09T19:43:59.419Z,15.77
2018-06-09T19:46:27.753Z,14.80
2018-06-09T19:48:55.949Z,15.27
2018-06-09T19:51:24.213Z,16.20
2018-06-09T19:53:52.402Z,14.60
2018-06-09T19:56:20.585Z,15.03
2018-06-09T19:58:48.814Z,14.97
2018-06-09T20:01:16.981Z,15.43
2018-06-09T20:03:45.222Z,17.17
2018-06-09T20:06:13.453Z,16.40
2018-06-09T20:08:41.669Z,14.57
2018-06-09T20:11:09.865Z,14.00
2018-06-09T20:13:38.101Z,16.07
2018-06-09T20:16:06.362Z,14.83
2018-06-09T20:18:34.570Z,14.20
2018-06-09T20:21:02.752Z,18.07
2018-06-09T20:23:30.960Z,15.57
2018-06-09T20:26:00.190Z,17.43
2018-06-09T20:28:28.492Z,19.60
2018-06-09T20:30:56.765Z,16.50
2018-06-09T20:33:24.948Z,17.83
2018-06-09T20:35:53.238Z,16.90
2018-06-09T20:38:21.567Z,16.67
2018-06-09T20:40:50.035Z,16.83
2018-06-09T20:43:18.424Z,18.07
2018-06-09T20:45:46.647Z,16.70
2018-06-09T20:48:14.975Z,15.87
2018-06-09T20:50:43.297Z,16.47
2018-06-09T20:53:11.545Z,16.43
2018-06-09T20:55:39.888Z,15.47
2018-06-09T20:58:08.121Z,16.13
2018-06-09T21:00:36.317Z,15.90
2018-06-09T21:03:04.524Z,17.10
2018-06-09T21:05:32.809Z,15.97
2018-06-09T21:08:01.148Z,17.10
2018-06-09T21:10:29.474Z,16.77
2018-06-09T21:12:57.693Z,17.57
2018-06-09T21:15:25.939Z,16.93
2018-06-09T21:17:54.268Z,20.23
2018-06-09T21:20:22.480Z,17.93
2018-06-09T21:22:50.648Z,17.73
2018-06-09T21:25:18.877Z,19.80
2018-06-09T21:27:52.558Z,17.90
2018-06-09T21:30:26.312Z,17.50
2018-06-09T21:33:00.118Z,19.37
2018-06-09T21:35:57.585Z,18.03
2018-06-09T21:38:27.694Z,19.23
2018-06-09T21:41:01.971Z,22.07
2018-06-09T21:43:34.722Z,20.40
2018-06-09T21:46:05.527Z,22.60
2018-06-09T21:48:33.756Z,21.47
2018-06-09T21:51:02.037Z,22.23
2018-06-09T21:53:30.267Z,23.87
2018-06-09T21:55:58.513Z,23.50
2018-06-09T21:58:26.685Z,22.77
2018-06-09T22:00:54.917Z,21.13
2018-06-09T22:03:23.104Z,21.87
2018-06-09T22:05:51.418Z,23.67
2018-06-09T22:08:19.595Z,21.23
2018-06-09T22:10:48.131Z,23.73
2018-06-09T22:13:16.485Z,21.67
2018-06-09T22:15:44.802Z,24.83
2018-06-09T22:18:13.034Z,24.03
2018-06-09T22:20:41.241Z,25.87
2018-06-09T22:23:09.513Z,23.87
2018-06-09T22:25:43.309Z,22.30
2018-06-09T22:28:11.483Z,22.50
2018-06-09T22:30:39.729Z,22.30
2018-06-09T22:33:07.929Z,21.90
2018-06-09T22:35:36.142Z,22.50
2018-06-09T22:38:04.539Z,22.50
2018-06-09T22:40:32.721Z,23.67
2018-06-09T22:43:00.915Z,22.17
2018-06-09T22:45:29.281Z,21.87
2018-06-09T22:47:57.472Z,20.90
2018-06-09T22:50:25.647Z,25.20
2018-06-09T22:52:53.965Z,20.90
2018-06-09T22:55:22.288Z,21.23
2018-06-09T22:57:50.514Z,20.97
2018-06-09T23:00:50.958Z,20.90
2018-06-09T23:03:19.503Z,23.17
2018-06-09T23:05:47.798Z,22.53
2018-06-09T23:08:16.056Z,24.83
2018-06-09T23:10:44.624Z,22.83
2018-06-09T23:13:12.808Z,21.67
2018-06-09T23:15:40.994Z,22.40
2018-06-09T23:18:09.183Z,21.17
2018-06-09T23:20:37.376Z,21.70
2018-06-09T23:23:05.706Z,22.17
2018-06-09T23:25:33.896Z,25.33
2018-06-09T23:28:02.152Z,26.83
2018-06-09T23:30:30.361Z,24.13
2018-06-09T23:32:58.555Z,23.27
2018-06-09T23:35:26.786Z,21.57
2018-06-09T23:37:55.004Z,23.50
2018-06-09T23:40:29.712Z,22.30
2018-06-09T23:42:57.912Z,27.90
2018-06-09T23:45:26.126Z,29.13
2018-06-09T23:47:54.319Z,28.07
2018-06-09T23:50:22.505Z,26.23
2018-06-09T23:52:50.784Z,27.40
2018-06-09T23:55:19.008Z,25.83
2018-06-09T23:57:47.291Z,26.47
